sensor_id;sensor_type;location;lat;lon;timestamp;pressure;altitude;pressure_sealevel;temperature;humidity
20656;BME280;10487;53.320;8.672;2022-08-19T00:00:37;101110.97;;;16.92;51.71
20656;BME280;10487;53.320;8.672;2022-08-19T00:03:39;101109.13;;;16.93;51.64
20656;BME280;10487;53.320;8.672;2022-08-19T00:06:42;101106.44;;;16.93;51.79
20656;BME280;10487;53.320;8.672;2022-08-19T00:09:45;101097.50;;;16.92;51.66
20656;BME280;10487;53.320;8.672;2022-08-19T00:12:46;101090.38;;;16.91;51.85
20656;BME280;10487;53.320;8.672;2022-08-19T00:15:48;101097.50;;;16.92;51.71
20656;BME280;10487;53.320;8.672;2022-08-19T00:18:50;101100.19;;;16.92;51.79
20656;BME280;10487;53.320;8.672;2022-08-19T00:21:52;101103.88;;;16.91;51.93
20656;BME280;10487;53.320;8.672;2022-08-19T00:24:54;101100.47;;;16.89;52.01
20656;BME280;10487;53.320;8.672;2022-08-19T00:27:57;101088.84;;;16.89;51.88
20656;BME280;10487;53.320;8.672;2022-08-19T00:31:00;101079.06;;;16.88;51.80
20656;BME280;10487;53.320;8.672;2022-08-19T00:34:02;101083.59;;;16.87;52.18
20656;BME280;10487;53.320;8.672;2022-08-19T00:37:04;101081.91;;;16.86;52.06
20656;BME280;10487;53.320;8.672;2022-08-19T00:40:10;101079.19;;;16.86;52.05
20656;BME280;10487;53.320;8.672;2022-08-19T00:43:13;101072.94;;;16.86;51.92
20656;BME280;10487;53.320;8.672;2022-08-19T00:46:19;101067.69;;;16.84;52.27
20656;BME280;10487;53.320;8.672;2022-08-19T00:49:35;101075.78;;;16.84;51.79
20656;BME280;10487;53.320;8.672;2022-08-19T00:52:41;101068.66;;;16.83;52.35
20656;BME280;10487;53.320;8.672;2022-08-19T00:55:49;101076.91;;;16.82;52.03
20656;BME280;10487;53.320;8.672;2022-08-19T00:58:54;101093.94;;;16.82;52.44
20656;BME280;10487;53.320;8.672;2022-08-19T01:01:57;101094.91;;;16.81;52.24
20656;BME280;10487;53.320;8.672;2022-08-19T01:05:02;101105.69;;;16.81;52.37
20656;BME280;10487;53.320;8.672;2022-08-19T01:08:05;101094.22;;;16.79;52.39
20656;BME280;10487;53.320;8.672;2022-08-19T01:11:07;101087.00;;;16.80;52.51
20656;BME280;10487;53.320;8.672;2022-08-19T01:14:10;101088.66;;;16.81;52.26
20656;BME280;10487;53.320;8.672;2022-08-19T01:17:12;101089.41;;;16.83;52.34
20656;BME280;10487;53.320;8.672;2022-08-19T01:20:18;101092.91;;;16.83;52.32
20656;BME280;10487;53.320;8.672;2022-08-19T01:23:20;101093.78;;;16.84;52.48
20656;BME280;10487;53.320;8.672;2022-08-19T01:26:24;101081.16;;;16.84;52.57
20656;BME280;10487;53.320;8.672;2022-08-19T01:29:26;101071.28;;;16.85;52.32
20656;BME280;10487;53.320;8.672;2022-08-19T01:32:28;101064.13;;;16.84;52.27
20656;BME280;10487;53.320;8.672;2022-08-19T01:35:34;101069.53;;;16.84;52.56
20656;BME280;10487;53.320;8.672;2022-08-19T01:38:38;101063.28;;;16.83;52.41
20656;BME280;10487;53.320;8.672;2022-08-19T01:41:45;101060.59;;;16.83;52.55
20656;BME280;10487;53.320;8.672;2022-08-19T01:44:47;101052.50;;;16.83;52.59
20656;BME280;10487;53.320;8.672;2022-08-19T01:47:49;101052.50;;;16.83;52.42
20656;BME280;10487;53.320;8.672;2022-08-19T01:51:02;101039.03;;;16.83;52.21
20656;BME280;10487;53.320;8.672;2022-08-19T01:54:03;101036.31;;;16.83;52.52
20656;BME280;10487;53.320;8.672;2022-08-19T01:57:08;101044.31;;;16.85;52.60
20656;BME280;10487;53.320;8.672;2022-08-19T02:00:14;101046.13;;;16.84;52.64
20656;BME280;10487;53.320;8.672;2022-08-19T02:03:17;101045.19;;;16.85;52.71
20656;BME280;10487;53.320;8.672;2022-08-19T02:06:19;101033.53;;;16.85;52.68
20656;BME280;10487;53.320;8.672;2022-08-19T02:09:27;101029.09;;;16.84;52.47
20656;BME280;10487;53.320;8.672;2022-08-19T02:12:29;101021.19;;;16.82;52.75
20656;BME280;10487;53.320;8.672;2022-08-19T02:15:31;101023.03;;;16.82;52.72
20656;BME280;10487;53.320;8.672;2022-08-19T02:18:33;101012.25;;;16.82;52.69
20656;BME280;10487;53.320;8.672;2022-08-19T02:21:35;101013.09;;;16.82;52.70
20656;BME280;10487;53.320;8.672;2022-08-19T02:24:36;101021.19;;;16.82;52.75
20656;BME280;10487;53.320;8.672;2022-08-19T02:27:39;101014.94;;;16.82;52.91
20656;BME280;10487;53.320;8.672;2022-08-19T02:30:41;101019.34;;;16.83;52.77
20656;BME280;10487;53.320;8.672;2022-08-19T02:33:44;101018.31;;;16.84;52.63
20656;BME280;10487;53.320;8.672;2022-08-19T02:36:46;101019.47;;;16.81;52.76
20656;BME280;10487;53.320;8.672;2022-08-19T02:39:52;101022.84;;;16.83;52.70
20656;BME280;10487;53.320;8.672;2022-08-19T02:42:54;101020.16;;;16.83;52.95
20656;BME280;10487;53.320;8.672;2022-08-19T02:45:56;101012.94;;;16.84;52.83
20656;BME280;10487;53.320;8.672;2022-08-19T02:49:00;101017.47;;;16.83;53.10
20656;BME280;10487;53.320;8.672;2022-08-19T02:52:03;101015.63;;;16.84;52.78
20656;BME280;10487;53.320;8.672;2022-08-19T02:55:05;101012.84;;;16.85;52.65
20656;BME280;10487;53.320;8.672;2022-08-19T02:58:07;101016.47;;;16.84;52.80
20656;BME280;10487;53.320;8.672;2022-08-19T03:01:09;101010.25;;;16.84;52.92
20656;BME280;10487;53.320;8.672;2022-08-19T03:04:14;101011.97;;;16.85;52.83
20656;BME280;10487;53.320;8.672;2022-08-19T03:07:17;101009.28;;;16.85;52.97
20656;BME280;10487;53.320;8.672;2022-08-19T03:10:19;101007.69;;;16.82;53.04
20656;BME280;10487;53.320;8.672;2022-08-19T03:13:21;101010.41;;;16.82;52.86
20656;BME280;10487;53.320;8.672;2022-08-19T03:16:26;101018.47;;;16.82;52.79
20656;BME280;10487;53.320;8.672;2022-08-19T03:19:33;101014.94;;;16.82;52.96
20656;BME280;10487;53.320;8.672;2022-08-19T03:22:35;101008.69;;;16.81;52.92
20656;BME280;10487;53.320;8.672;2022-08-19T03:25:38;101012.25;;;16.82;52.86
20656;BME280;10487;53.320;8.672;2022-08-19T03:28:44;101016.78;;;16.81;53.26
20656;BME280;10487;53.320;8.672;2022-08-19T03:31:52;101006.16;;;16.80;52.96
20656;BME280;10487;53.320;8.672;2022-08-19T03:34:54;101019.63;;;16.80;53.20
20656;BME280;10487;53.320;8.672;2022-08-19T03:37:55;101024.16;;;16.79;53.19
20656;BME280;10487;53.320;8.672;2022-08-19T03:40:57;101025.00;;;16.80;53.02
20656;BME280;10487;53.320;8.672;2022-08-19T03:43:59;101031.25;;;16.80;53.11
20656;BME280;10487;53.320;8.672;2022-08-19T03:47:00;101035.63;;;16.81;52.90
20656;BME280;10487;53.320;8.672;2022-08-19T03:50:03;101044.56;;;16.82;52.93
20656;BME280;10487;53.320;8.672;2022-08-19T03:53:04;101046.56;;;16.80;53.17
20656;BME280;10487;53.320;8.672;2022-08-19T03:56:09;101043.03;;;16.79;53.11
20656;BME280;10487;53.320;8.672;2022-08-19T03:59:15;101043.03;;;16.79;53.04
20656;BME280;10487;53.320;8.672;2022-08-19T04:02:17;101041.31;;;16.78;52.93
20656;BME280;10487;53.320;8.672;2022-08-19T04:05:19;101043.19;;;16.78;52.89
20656;BME280;10487;53.320;8.672;2022-08-19T04:08:27;101036.06;;;16.77;52.90
20656;BME280;10487;53.320;8.672;2022-08-19T04:11:33;101039.91;;;16.74;52.92
20656;BME280;10487;53.320;8.672;2022-08-19T04:14:44;101043.59;;;16.73;53.20
20656;BME280;10487;53.320;8.672;2022-08-19T04:17:46;101038.34;;;16.72;53.09
20656;BME280;10487;53.320;8.672;2022-08-19T04:20:47;101034.81;;;16.71;53.05
20656;BME280;10487;53.320;8.672;2022-08-19T04:23:51;101025.03;;;16.70;53.15
20656;BME280;10487;53.320;8.672;2022-08-19T04:26:56;101020.78;;;16.68;53.04
20656;BME280;10487;53.320;8.672;2022-08-19T04:29:57;101026.47;;;16.65;53.05
20656;BME280;10487;53.320;8.672;2022-08-19T04:32:59;101038.38;;;16.62;53.14
20656;BME280;10487;53.320;8.672;2022-08-19T04:36:01;101036.13;;;16.58;53.33
20656;BME280;10487;53.320;8.672;2022-08-19T04:39:06;101038.25;;;16.54;53.14
20656;BME280;10487;53.320;8.672;2022-08-19T04:42:08;101054.00;;;16.49;53.24
20656;BME280;10487;53.320;8.672;2022-08-19T04:45:31;101060.50;;;16.47;53.13
20656;BME280;10487;53.320;8.672;2022-08-19T04:48:44;101059.13;;;16.43;53.24
20656;BME280;10487;53.320;8.672;2022-08-19T04:51:51;101069.03;;;16.42;53.30
20656;BME280;10487;53.320;8.672;2022-08-19T04:54:55;101062.94;;;16.40;53.34
20656;BME280;10487;53.320;8.672;2022-08-19T04:57:56;101065.63;;;16.40;53.21
20656;BME280;10487;53.320;8.672;2022-08-19T05:00:58;101068.31;;;16.40;53.32
20656;BME280;10487;53.320;8.672;2022-08-19T05:04:03;101077.25;;;16.41;53.31
20656;BME280;10487;53.320;8.672;2022-08-19T05:07:07;101081.78;;;16.40;53.20
20656;BME280;10487;53.320;8.672;2022-08-19T05:10:09;101082.66;;;16.41;53.32
20656;BME280;10487;53.320;8.672;2022-08-19T05:13:11;101071.03;;;16.40;53.23
20656;BME280;10487;53.320;8.672;2022-08-19T05:16:14;101065.63;;;16.40;53.21
20656;BME280;10487;53.320;8.672;2022-08-19T05:19:16;101070.31;;;16.38;53.33
20656;BME280;10487;53.320;8.672;2022-08-19T05:22:36;101078.53;;;16.37;53.19
20656;BME280;10487;53.320;8.672;2022-08-19T05:25:39;101078.69;;;16.35;53.17
20656;BME280;10487;53.320;8.672;2022-08-19T05:28:41;101072.44;;;16.35;53.36
20656;BME280;10487;53.320;8.672;2022-08-19T05:31:44;101061.81;;;16.33;53.21
20656;BME280;10487;53.320;8.672;2022-08-19T05:34:45;101065.50;;;16.32;53.59
20656;BME280;10487;53.320;8.672;2022-08-19T05:37:47;101055.69;;;16.31;53.18
20656;BME280;10487;53.320;8.672;2022-08-19T05:40:55;101062.78;;;16.32;53.39
20656;BME280;10487;53.320;8.672;2022-08-19T05:43:57;101064.78;;;16.30;53.49
20656;BME280;10487;53.320;8.672;2022-08-19T05:47:00;101061.22;;;16.29;53.37
20656;BME280;10487;53.320;8.672;2022-08-19T05:50:03;101055.69;;;16.31;53.50
20656;BME280;10487;53.320;8.672;2022-08-19T05:53:06;101057.41;;;16.32;53.43
20656;BME280;10487;53.320;8.672;2022-08-19T05:56:13;101056.56;;;16.32;53.48
20656;BME280;10487;53.320;8.672;2022-08-19T05:59:16;101053.31;;;16.38;53.61
20656;BME280;10487;53.320;8.672;2022-08-19T06:02:19;101061.22;;;16.58;53.52
20656;BME280;10487;53.320;8.672;2022-08-19T06:05:21;101057.34;;;16.80;53.47
20656;BME280;10487;53.320;8.672;2022-08-19T06:08:22;101066.00;;;16.93;53.49
20656;BME280;10487;53.320;8.672;2022-08-19T06:11:43;101065.25;;;17.01;53.61
20656;BME280;10487;53.320;8.672;2022-08-19T06:14:45;101066.97;;;17.02;53.48
20656;BME280;10487;53.320;8.672;2022-08-19T06:18:01;101067.66;;;17.04;53.50
20656;BME280;10487;53.320;8.672;2022-08-19T06:21:02;101058.72;;;17.03;53.44
20656;BME280;10487;53.320;8.672;2022-08-19T06:24:08;101062.56;;;17.01;53.40
20656;BME280;10487;53.320;8.672;2022-08-19T06:27:10;101063.41;;;17.01;53.29
20656;BME280;10487;53.320;8.672;2022-08-19T06:30:13;101057.03;;;17.02;53.54
20656;BME280;10487;53.320;8.672;2022-08-19T06:33:15;101059.44;;;17.05;53.47
20656;BME280;10487;53.320;8.672;2022-08-19T06:36:24;101066.06;;;17.11;53.63
20656;BME280;10487;53.320;8.672;2022-08-19T06:39:31;101057.56;;;17.15;53.34
20656;BME280;10487;53.320;8.672;2022-08-19T06:42:34;101069.44;;;17.22;53.53
20656;BME280;10487;53.320;8.672;2022-08-19T06:45:37;101064.31;;;17.29;53.49
20656;BME280;10487;53.320;8.672;2022-08-19T06:48:41;101066.53;;;17.33;53.49
20656;BME280;10487;53.320;8.672;2022-08-19T06:51:47;101073.88;;;17.41;53.21
20656;BME280;10487;53.320;8.672;2022-08-19T06:54:52;101079.22;;;17.50;53.46
20656;BME280;10487;53.320;8.672;2022-08-19T06:57:56;101078.66;;;17.56;53.28
20656;BME280;10487;53.320;8.672;2022-08-19T07:01:00;101082.63;;;17.62;53.33
20656;BME280;10487;53.320;8.672;2022-08-19T07:04:09;101084.19;;;17.65;53.25
20656;BME280;10487;53.320;8.672;2022-08-19T07:07:14;101088.56;;;17.66;53.42
20656;BME280;10487;53.320;8.672;2022-08-19T07:10:21;101080.47;;;17.66;53.42
20656;BME280;10487;53.320;8.672;2022-08-19T07:13:26;101087.41;;;17.68;52.99
20656;BME280;10487;53.320;8.672;2022-08-19T07:16:28;101089.13;;;17.69;53.23
20656;BME280;10487;53.320;8.672;2022-08-19T07:19:30;101099.63;;;17.72;53.04
20656;BME280;10487;53.320;8.672;2022-08-19T07:22:34;101105.56;;;17.76;53.11
20656;BME280;10487;53.320;8.672;2022-08-19T07:25:37;101101.00;;;17.76;53.29
20656;BME280;10487;53.320;8.672;2022-08-19T07:28:41;101107.09;;;17.78;53.15
20656;BME280;10487;53.320;8.672;2022-08-19T07:31:54;101099.41;;;17.83;53.08
20656;BME280;10487;53.320;8.672;2022-08-19T07:35:01;101108.28;;;17.93;52.93
20656;BME280;10487;53.320;8.672;2022-08-19T07:38:04;101120.88;;;18.02;52.94
20656;BME280;10487;53.320;8.672;2022-08-19T07:41:10;101119.28;;;18.09;52.82
20656;BME280;10487;53.320;8.672;2022-08-19T07:44:12;101119.50;;;18.16;52.86
20656;BME280;10487;53.320;8.672;2022-08-19T07:47:14;101118.91;;;18.22;52.97
20656;BME280;10487;53.320;8.672;2022-08-19T07:50:36;101128.69;;;18.23;52.56
20656;BME280;10487;53.320;8.672;2022-08-19T07:53:38;101134.78;;;18.25;52.77
20656;BME280;10487;53.320;8.672;2022-08-19T07:56:40;101135.34;;;18.29;52.80
20656;BME280;10487;53.320;8.672;2022-08-19T07:59:42;101134.00;;;18.33;52.73
20656;BME280;10487;53.320;8.672;2022-08-19T08:02:44;101136.44;;;18.36;52.82
20656;BME280;10487;53.320;8.672;2022-08-19T08:05:46;101148.63;;;18.40;52.39
20656;BME280;10487;53.320;8.672;2022-08-19T08:09:07;101152.75;;;18.44;52.25
20656;BME280;10487;53.320;8.672;2022-08-19T08:12:18;101157.84;;;18.47;52.68
20656;BME280;10487;53.320;8.672;2022-08-19T08:15:38;101158.84;;;18.46;52.66
20656;BME280;10487;53.320;8.672;2022-08-19T08:18:43;101156.81;;;18.48;52.36
20656;BME280;10487;53.320;8.672;2022-08-19T08:21:58;101153.81;;;18.51;52.22
20656;BME280;10487;53.320;8.672;2022-08-19T08:25:03;101159.91;;;18.53;52.72
20656;BME280;10487;53.320;8.672;2022-08-19T08:28:07;101159.91;;;18.53;52.31
20656;BME280;10487;53.320;8.672;2022-08-19T08:31:18;101166.69;;;18.57;52.21
20656;BME280;10487;53.320;8.672;2022-08-19T08:34:22;101167.94;;;18.62;52.46
20656;BME280;10487;53.320;8.672;2022-08-19T08:37:24;101170.16;;;18.67;52.50
20656;BME280;10487;53.320;8.672;2022-08-19T08:40:39;101160.91;;;18.69;52.54
20656;BME280;10487;53.320;8.672;2022-08-19T08:43:45;101158.59;;;18.74;52.39
20656;BME280;10487;53.320;8.672;2022-08-19T08:46:55;101158.81;;;18.81;52.46
20656;BME280;10487;53.320;8.672;2022-08-19T08:50:05;101162.59;;;18.88;52.21
20656;BME280;10487;53.320;8.672;2022-08-19T08:53:17;101158.09;;;18.97;52.10
20656;BME280;10487;53.320;8.672;2022-08-19T08:56:31;101161.72;;;19.05;52.05
20656;BME280;10487;53.320;8.672;2022-08-19T08:59:36;101164.66;;;19.12;52.11
20656;BME280;10487;53.320;8.672;2022-08-19T09:02:38;101166.06;;;19.16;51.94
20656;BME280;10487;53.320;8.672;2022-08-19T09:06:25;101151.19;;;19.20;51.96
20656;BME280;10487;53.320;8.672;2022-08-19T09:09:48;101148.00;;;19.24;51.72
20656;BME280;10487;53.320;8.672;2022-08-19T09:13:14;101150.41;;;19.27;51.71
20656;BME280;10487;53.320;8.672;2022-08-19T09:16:20;101149.25;;;19.30;51.79
20656;BME280;10487;53.320;8.672;2022-08-19T09:19:29;101149.25;;;19.30;51.88
20656;BME280;10487;53.320;8.672;2022-08-19T09:22:31;101146.03;;;19.34;51.62
20656;BME280;10487;53.320;8.672;2022-08-19T09:25:33;101151.16;;;19.37;51.67
20656;BME280;10487;53.320;8.672;2022-08-19T09:28:35;101157.22;;;19.39;51.81
20656;BME280;10487;53.320;8.672;2022-08-19T09:31:39;101148.50;;;19.45;52.01
20656;BME280;10487;53.320;8.672;2022-08-19T09:34:41;101152.94;;;19.55;51.77
20656;BME280;10487;53.320;8.672;2022-08-19T09:37:44;101153.34;;;19.68;51.73
20656;BME280;10487;53.320;8.672;2022-08-19T09:40:46;101153.78;;;19.81;51.53
20656;BME280;10487;53.320;8.672;2022-08-19T09:43:51;101148.22;;;19.98;51.90
20656;BME280;10487;53.320;8.672;2022-08-19T09:46:59;101146.78;;;20.20;51.53
20656;BME280;10487;53.320;8.672;2022-08-19T09:50:01;101150.03;;;20.40;51.51
20656;BME280;10487;53.320;8.672;2022-08-19T09:53:03;101148.91;;;20.58;51.46
20656;BME280;10487;53.320;8.672;2022-08-19T09:56:07;101150.59;;;20.76;51.25
20656;BME280;10487;53.320;8.672;2022-08-19T09:59:10;101150.94;;;20.89;51.11
20656;BME280;10487;53.320;8.672;2022-08-19T10:02:13;101148.22;;;21.05;50.67
20656;BME280;10487;53.320;8.672;2022-08-19T10:05:22;101141.78;;;21.22;50.69
20656;BME280;10487;53.320;8.672;2022-08-19T10:08:43;101147.69;;;21.42;50.47
20656;BME280;10487;53.320;8.672;2022-08-19T10:11:50;101142.03;;;21.59;50.41
20656;BME280;10487;53.320;8.672;2022-08-19T10:14:55;101144.53;;;21.77;50.34
20656;BME280;10487;53.320;8.672;2022-08-19T10:17:57;101145.97;;;21.95;50.34
20656;BME280;10487;53.320;8.672;2022-08-19T10:21:23;101135.69;;;22.14;50.12
20656;BME280;10487;53.320;8.672;2022-08-19T10:24:26;101127.25;;;22.31;49.95
20656;BME280;10487;53.320;8.672;2022-08-19T10:27:29;101126.13;;;22.48;49.84
20656;BME280;10487;53.320;8.672;2022-08-19T10:30:33;101125.63;;;22.68;49.83
20656;BME280;10487;53.320;8.672;2022-08-19T10:33:37;101123.44;;;22.86;49.78
20656;BME280;10487;53.320;8.672;2022-08-19T10:36:55;101124.16;;;23.02;49.66
20656;BME280;10487;53.320;8.672;2022-08-19T10:40:07;101128.31;;;23.13;49.17
20656;BME280;10487;53.320;8.672;2022-08-19T10:43:09;101127.56;;;23.19;49.48
20656;BME280;10487;53.320;8.672;2022-08-19T10:46:14;101123.25;;;23.24;49.12
20656;BME280;10487;53.320;8.672;2022-08-19T10:49:18;101124.03;;;23.33;48.88
20656;BME280;10487;53.320;8.672;2022-08-19T10:52:20;101111.63;;;23.45;49.21
20656;BME280;10487;53.320;8.672;2022-08-19T10:55:39;101126.25;;;23.59;49.19
20656;BME280;10487;53.320;8.672;2022-08-19T10:59:25;101124.19;;;23.75;49.05
20656;BME280;10487;53.320;8.672;2022-08-19T11:02:34;101120.63;;;23.90;48.50
20656;BME280;10487;53.320;8.672;2022-08-19T11:05:35;101116.81;;;24.05;48.63
20656;BME280;10487;53.320;8.672;2022-08-19T11:08:40;101114.09;;;24.20;48.71
20656;BME280;10487;53.320;8.672;2022-08-19T11:11:45;101116.69;;;24.28;48.43
20656;BME280;10487;53.320;8.672;2022-08-19T11:14:49;101108.38;;;24.36;48.01
20656;BME280;10487;53.320;8.672;2022-08-19T11:17:51;101116.06;;;24.47;48.44
20656;BME280;10487;53.320;8.672;2022-08-19T11:20:53;101113.44;;;24.60;48.32
20656;BME280;10487;53.320;8.672;2022-08-19T11:23:57;101116.03;;;24.68;47.79
20656;BME280;10487;53.320;8.672;2022-08-19T11:27:04;101113.69;;;24.65;47.36
20656;BME280;10487;53.320;8.672;2022-08-19T11:30:06;101131.72;;;24.60;47.40
20656;BME280;10487;53.320;8.672;2022-08-19T11:33:13;101133.19;;;24.62;47.63
20656;BME280;10487;53.320;8.672;2022-08-19T11:36:16;101128.22;;;24.72;47.68
20656;BME280;10487;53.320;8.672;2022-08-19T11:39:21;101120.16;;;24.79;47.52
20656;BME280;10487;53.320;8.672;2022-08-19T11:42:22;101124.63;;;24.86;47.45
20656;BME280;10487;53.320;8.672;2022-08-19T11:45:43;101120.66;;;24.89;46.93
20656;BME280;10487;53.320;8.672;2022-08-19T11:48:44;101123.00;;;24.92;46.91
20656;BME280;10487;53.320;8.672;2022-08-19T11:51:47;101127.00;;;24.96;46.61
20656;BME280;10487;53.320;8.672;2022-08-19T11:54:51;101121.75;;;24.94;46.82
20656;BME280;10487;53.320;8.672;2022-08-19T11:57:52;101124.94;;;24.98;46.99
20656;BME280;10487;53.320;8.672;2022-08-19T12:00:54;101132.50;;;25.02;46.38
20656;BME280;10487;53.320;8.672;2022-08-19T12:03:57;101132.50;;;25.02;46.54
20656;BME280;10487;53.320;8.672;2022-08-19T12:06:59;101132.94;;;24.99;46.12
20656;BME280;10487;53.320;8.672;2022-08-19T12:10:01;101133.31;;;24.96;46.45
20656;BME280;10487;53.320;8.672;2022-08-19T12:13:04;101128.47;;;24.92;45.81
20656;BME280;10487;53.320;8.672;2022-08-19T12:16:22;101126.50;;;24.86;45.80
20656;BME280;10487;53.320;8.672;2022-08-19T12:19:25;101125.63;;;24.79;46.16
20656;BME280;10487;53.320;8.672;2022-08-19T12:22:27;101124.94;;;24.77;45.74
20656;BME280;10487;53.320;8.672;2022-08-19T12:25:29;101122.22;;;24.77;45.66
20656;BME280;10487;53.320;8.672;2022-08-19T12:28:32;101116.75;;;24.77;45.53
20656;BME280;10487;53.320;8.672;2022-08-19T12:31:34;101108.75;;;24.75;45.34
20656;BME280;10487;53.320;8.672;2022-08-19T12:34:36;101107.53;;;24.78;45.43
20656;BME280;10487;53.320;8.672;2022-08-19T12:37:38;101109.09;;;24.87;45.19
20656;BME280;10487;53.320;8.672;2022-08-19T12:40:41;101094.91;;;24.98;44.84
20656;BME280;10487;53.320;8.672;2022-08-19T12:43:42;101104.63;;;25.07;44.87
20656;BME280;10487;53.320;8.672;2022-08-19T12:46:44;101093.94;;;25.12;44.93
20656;BME280;10487;53.320;8.672;2022-08-19T12:49:46;101090.63;;;25.17;44.40
20656;BME280;10487;53.320;8.672;2022-08-19T12:52:57;101093.41;;;25.23;44.64
20656;BME280;10487;53.320;8.672;2022-08-19T12:55:59;101089.28;;;25.34;44.61
20656;BME280;10487;53.320;8.672;2022-08-19T12:59:02;101083.25;;;25.45;44.54
20656;BME280;10487;53.320;8.672;2022-08-19T13:02:05;101078.25;;;25.55;44.43
20656;BME280;10487;53.320;8.672;2022-08-19T13:05:09;101082.06;;;25.60;44.20
20656;BME280;10487;53.320;8.672;2022-08-19T13:08:12;101077.09;;;25.70;43.80
20656;BME280;10487;53.320;8.672;2022-08-19T13:11:16;101074.81;;;25.81;43.68
20656;BME280;10487;53.320;8.672;2022-08-19T13:14:19;101076.69;;;25.87;43.72
20656;BME280;10487;53.320;8.672;2022-08-19T13:17:20;101074.22;;;25.92;43.79
20656;BME280;10487;53.320;8.672;2022-08-19T13:20:24;101079.75;;;25.98;43.43
20656;BME280;10487;53.320;8.672;2022-08-19T13:23:26;101077.19;;;25.97;43.36
20656;BME280;10487;53.320;8.672;2022-08-19T13:26:28;101081.41;;;25.99;43.39
20656;BME280;10487;53.320;8.672;2022-08-19T13:29:29;101083.94;;;26.01;43.18
20656;BME280;10487;53.320;8.672;2022-08-19T13:32:50;101083.09;;;26.00;43.14
20656;BME280;10487;53.320;8.672;2022-08-19T13:36:10;101082.88;;;26.02;42.87
20656;BME280;10487;53.320;8.672;2022-08-19T13:39:12;101078.03;;;26.04;42.75
20656;BME280;10487;53.320;8.672;2022-08-19T13:42:14;101081.84;;;26.03;42.83
20656;BME280;10487;53.320;8.672;2022-08-19T13:45:18;101075.09;;;25.99;43.04
20656;BME280;10487;53.320;8.672;2022-08-19T13:48:21;101075.94;;;25.99;42.99
20656;BME280;10487;53.320;8.672;2022-08-19T13:51:23;101074.91;;;26.00;42.66
20656;BME280;10487;53.320;8.672;2022-08-19T13:54:25;101069.63;;;25.99;42.62
20656;BME280;10487;53.320;8.672;2022-08-19T13:57:28;101060.38;;;26.00;42.93
20656;BME280;10487;53.320;8.672;2022-08-19T14:00:33;101067.97;;;26.04;42.84
20656;BME280;10487;53.320;8.672;2022-08-19T14:03:36;101070.50;;;26.06;42.90
20656;BME280;10487;53.320;8.672;2022-08-19T14:06:37;101067.78;;;26.06;42.34
20656;BME280;10487;53.320;8.672;2022-08-19T14:09:39;101067.34;;;26.09;42.43
20656;BME280;10487;53.320;8.672;2022-08-19T14:12:41;101064.63;;;26.15;42.59
20656;BME280;10487;53.320;8.672;2022-08-19T14:15:43;101058.53;;;26.13;42.55
20656;BME280;10487;53.320;8.672;2022-08-19T14:18:45;101064.41;;;26.17;42.40
20656;BME280;10487;53.320;8.672;2022-08-19T14:21:47;101062.31;;;26.19;42.30
20656;BME280;10487;53.320;8.672;2022-08-19T14:24:49;101057.91;;;26.24;42.10
20656;BME280;10487;53.320;8.672;2022-08-19T14:27:51;101052.44;;;26.31;42.19
20656;BME280;10487;53.320;8.672;2022-08-19T14:30:54;101052.47;;;26.37;42.23
20656;BME280;10487;53.320;8.672;2022-08-19T14:33:57;101061.53;;;26.45;42.07
20656;BME280;10487;53.320;8.672;2022-08-19T14:36:59;101050.19;;;26.48;41.92
20656;BME280;10487;53.320;8.672;2022-08-19T14:40:03;101054.19;;;26.45;41.81
20656;BME280;10487;53.320;8.672;2022-08-19T14:43:05;101059.25;;;26.48;41.88
20656;BME280;10487;53.320;8.672;2022-08-19T14:46:07;101053.56;;;26.50;42.04
20656;BME280;10487;53.320;8.672;2022-08-19T14:49:10;101054.41;;;26.50;41.91
20656;BME280;10487;53.320;8.672;2022-08-19T14:52:12;101050.59;;;26.45;41.74
20656;BME280;10487;53.320;8.672;2022-08-19T14:55:15;101059.00;;;26.43;41.85
20656;BME280;10487;53.320;8.672;2022-08-19T14:58:17;101055.66;;;26.48;41.82
20656;BME280;10487;53.320;8.672;2022-08-19T15:01:30;101057.13;;;26.50;41.79
20656;BME280;10487;53.320;8.672;2022-08-19T15:04:32;101057.75;;;26.52;41.78
20656;BME280;10487;53.320;8.672;2022-08-19T15:07:34;101054.81;;;26.47;41.63
20656;BME280;10487;53.320;8.672;2022-08-19T15:10:38;101064.25;;;26.38;41.74
20656;BME280;10487;53.320;8.672;2022-08-19T15:13:40;101061.94;;;26.28;41.62
20656;BME280;10487;53.320;8.672;2022-08-19T15:16:42;101070.13;;;26.28;41.74
20656;BME280;10487;53.320;8.672;2022-08-19T15:19:44;101071.81;;;26.29;41.73
20656;BME280;10487;53.320;8.672;2022-08-19T15:22:47;101078.13;;;26.30;41.54
20656;BME280;10487;53.320;8.672;2022-08-19T15:25:49;101075.78;;;26.27;41.50
20656;BME280;10487;53.320;8.672;2022-08-19T15:28:54;101076.19;;;26.24;41.62
20656;BME280;10487;53.320;8.672;2022-08-19T15:31:57;101070.09;;;26.22;41.57
20656;BME280;10487;53.320;8.672;2022-08-19T15:35:00;101078.13;;;26.23;41.21
20656;BME280;10487;53.320;8.672;2022-08-19T15:38:04;101076.19;;;26.24;41.39
20656;BME280;10487;53.320;8.672;2022-08-19T15:41:17;101076.19;;;26.24;41.47
20656;BME280;10487;53.320;8.672;2022-08-19T15:44:25;101080.63;;;26.25;41.22
20656;BME280;10487;53.320;8.672;2022-08-19T15:47:28;101090.31;;;26.21;41.24
20656;BME280;10487;53.320;8.672;2022-08-19T15:50:35;101084.63;;;26.16;41.13
20656;BME280;10487;53.320;8.672;2022-08-19T15:53:37;101075.75;;;26.14;41.23
20656;BME280;10487;53.320;8.672;2022-08-19T15:56:41;101082.94;;;26.15;40.80
20656;BME280;10487;53.320;8.672;2022-08-19T16:00:01;101076.38;;;26.09;41.25
20656;BME280;10487;53.320;8.672;2022-08-19T16:03:27;101076.38;;;25.96;41.18
20656;BME280;10487;53.320;8.672;2022-08-19T16:06:50;101073.78;;;25.88;40.96